createdAt,value
2022-09-06T00:00:44.074Z,100.00
2022-09-06T00:03:11.902Z,100.00
2022-09-06T00:05:41.450Z,100.00
2022-09-06T00:08:09.327Z,100.00
2022-09-06T00:10:37.555Z,100.00
2022-09-06T00:13:08.459Z,100.00
2022-09-06T00:15:37.562Z,100.00
2022-09-06T00:18:07.028Z,100.00
2022-09-06T00:20:36.643Z,100.00
2022-09-06T00:23:06.734Z,100.00
2022-09-06T00:25:35.421Z,100.00
2022-09-06T00:28:06.885Z,100.00
2022-09-06T00:30:35.218Z,100.00
2022-09-06T00:33:03.042Z,100.00
2022-09-06T00:35:31.007Z,100.00
2022-09-06T00:37:59.702Z,100.00
2022-09-06T00:40:29.478Z,100.00
2022-09-06T00:42:57.683Z,100.00
2022-09-06T00:45:29.071Z,100.00
2022-09-06T00:47:59.471Z,100.00
2022-09-06T00:50:27.963Z,100.00
2022-09-06T00:52:55.957Z,100.00
2022-09-06T00:55:25.432Z,100.00
2022-09-06T00:57:53.939Z,100.00
2022-09-06T01:00:21.936Z,100.00
2022-09-06T01:02:52.154Z,100.00
2022-09-06T01:05:21.721Z,100.00
2022-09-06T01:08:03.469Z,100.00
2022-09-06T01:11:07.948Z,100.00
2022-09-06T01:13:49.738Z,100.00
2022-09-06T01:16:28.025Z,100.00
2022-09-06T01:19:15.864Z,100.00
2022-09-06T01:21:51.421Z,100.00
2022-09-06T01:24:43.534Z,100.00
2022-09-06T01:27:55.955Z,100.00
2022-09-06T01:30:25.852Z,100.00
2022-09-06T01:33:01.455Z,100.00
2022-09-06T01:35:36.339Z,100.00
2022-09-06T01:38:05.691Z,100.00
2022-09-06T01:40:36.439Z,100.00
2022-09-06T01:43:10.651Z,100.00
2022-09-06T01:45:50.981Z,100.00
2022-09-06T01:48:31.225Z,100.00
2022-09-06T01:51:10.989Z,100.00
2022-09-06T01:53:58.640Z,100.00
2022-09-06T01:56:38.441Z,100.00
2022-09-06T01:59:32.893Z,100.00
2022-09-06T02:02:07.127Z,100.00
2022-09-06T02:04:44.546Z,100.00
2022-09-06T02:07:20.096Z,100.00
2022-09-06T02:09:52.335Z,100.00
2022-09-06T02:12:22.465Z,100.00
2022-09-06T02:14:56.988Z,100.00
2022-09-06T02:17:31.517Z,100.00
2022-09-06T02:20:05.837Z,100.00
2022-09-06T02:22:40.242Z,100.00
2022-09-06T02:25:12.003Z,100.00
2022-09-06T02:27:39.966Z,100.00
2022-09-06T02:30:08.829Z,100.00
2022-09-06T02:32:44.094Z,100.00
2022-09-06T02:35:16.091Z,100.00
2022-09-06T02:37:44.648Z,100.00
2022-09-06T02:40:13.433Z,100.00
2022-09-06T02:42:41.841Z,100.00
2022-09-06T02:45:10.851Z,100.00
2022-09-06T02:47:40.118Z,100.00
2022-09-06T02:50:09.038Z,100.00
2022-09-06T02:52:36.913Z,100.00
2022-09-06T02:55:05.405Z,100.00
2022-09-06T02:57:33.223Z,100.00
2022-09-06T03:00:01.048Z,100.00
2022-09-06T03:02:28.941Z,100.00
2022-09-06T03:04:58.161Z,100.00
2022-09-06T03:07:26.078Z,100.00
2022-09-06T03:09:53.931Z,100.00
2022-09-06T03:12:21.771Z,100.00
2022-09-06T03:14:54.290Z,100.00
2022-09-06T03:17:22.785Z,100.00
2022-09-06T03:19:50.590Z,100.00
2022-09-06T03:22:22.682Z,100.00
2022-09-06T03:24:50.545Z,100.00
2022-09-06T03:27:18.371Z,100.00
2022-09-06T03:29:46.221Z,100.00
2022-09-06T03:32:14.152Z,100.00
2022-09-06T03:34:42.016Z,100.00
2022-09-06T03:37:09.912Z,100.00
2022-09-06T03:39:39.319Z,100.00
2022-09-06T03:42:07.577Z,100.00
2022-09-06T03:44:35.425Z,100.00
2022-09-06T03:47:04.767Z,100.00
2022-09-06T03:49:32.609Z,100.00
2022-09-06T03:52:00.435Z,100.00
2022-09-06T03:54:29.147Z,100.00
2022-09-06T03:56:58.398Z,100.00
2022-09-06T03:59:26.229Z,100.00
2022-09-06T04:01:54.119Z,100.00
2022-09-06T04:04:22.036Z,100.00
2022-09-06T04:06:49.852Z,100.00
2022-09-06T04:09:17.755Z,100.00
2022-09-06T04:11:45.606Z,100.00
2022-09-06T04:14:14.802Z,100.00
2022-09-06T04:16:42.755Z,100.00
2022-09-06T04:19:10.757Z,100.00
2022-09-06T04:21:38.776Z,100.00
2022-09-06T04:24:07.004Z,100.00
2022-09-06T04:26:35.042Z,100.00
2022-09-06T04:29:02.939Z,100.00
2022-09-06T04:31:32.337Z,100.00
2022-09-06T04:34:00.213Z,100.00
2022-09-06T04:36:28.090Z,100.00
2022-09-06T04:38:56.015Z,100.00
2022-09-06T04:41:23.923Z,100.00
2022-09-06T04:43:51.823Z,100.00
2022-09-06T04:46:24.071Z,100.00
2022-09-06T04:48:54.892Z,100.00
2022-09-06T04:51:23.091Z,100.00
2022-09-06T04:53:51.467Z,100.00
2022-09-06T04:56:21.039Z,100.00
2022-09-06T04:58:50.672Z,100.00
2022-09-06T05:01:19.150Z,100.00
2022-09-06T05:03:47.244Z,100.00
2022-09-06T05:06:21.745Z,100.00
2022-09-06T05:08:50.025Z,100.00
2022-09-06T05:11:18.692Z,100.00
2022-09-06T05:13:47.583Z,100.00
2022-09-06T05:16:15.482Z,100.00
2022-09-06T05:18:44.285Z,100.00
2022-09-06T05:21:12.132Z,100.00
2022-09-06T05:23:41.396Z,100.00
2022-09-06T05:26:09.483Z,100.00
2022-09-06T05:28:37.376Z,100.00
2022-09-06T05:31:09.240Z,100.00
2022-09-06T05:33:38.080Z,100.00
2022-09-06T05:36:07.154Z,100.00
2022-09-06T05:38:35.017Z,100.00
2022-09-06T05:41:04.316Z,100.00
2022-09-06T05:43:32.116Z,100.00
2022-09-06T05:46:00.550Z,100.00
2022-09-06T05:48:29.756Z,100.00
2022-09-06T05:51:03.834Z,100.00
2022-09-06T05:53:35.922Z,100.00
2022-09-06T05:56:06.237Z,100.00
2022-09-06T05:58:34.341Z,100.00
2022-09-06T06:01:07.091Z,100.00
2022-09-06T06:03:35.049Z,100.00
2022-09-06T06:06:02.877Z,100.00
2022-09-06T06:08:30.908Z,100.00
2022-09-06T06:11:00.197Z,100.00
2022-09-06T06:13:34.892Z,100.00
2022-09-06T06:16:04.249Z,100.00
2022-09-06T06:18:32.313Z,100.00
2022-09-06T06:21:10.792Z,100.00
2022-09-06T06:23:38.905Z,100.00
2022-09-06T06:26:08.267Z,100.00
2022-09-06T06:28:37.870Z,100.00
2022-09-06T06:31:06.885Z,100.00
2022-09-06T06:33:36.328Z,100.00
2022-09-06T06:36:06.918Z,100.00
2022-09-06T06:38:37.371Z,100.00
2022-09-06T06:41:07.326Z,100.00
2022-09-06T06:43:37.935Z,100.00
2022-09-06T06:46:06.563Z,100.00
2022-09-06T06:48:35.567Z,100.00
2022-09-06T06:51:03.714Z,100.00
2022-09-06T06:53:32.782Z,100.00
2022-09-06T06:56:00.777Z,100.00
2022-09-06T06:58:28.844Z,100.00
2022-09-06T07:00:58.514Z,100.00
2022-09-06T07:03:26.400Z,100.00
2022-09-06T07:08:38.273Z,100.00
2022-09-06T07:11:07.126Z,100.00
2022-09-06T07:13:35.217Z,100.00
2022-09-06T07:16:12.292Z,100.00
2022-09-06T07:18:42.241Z,100.00
2022-09-06T07:24:08.204Z,100.00
2022-09-06T07:26:38.203Z,100.00
2022-09-06T07:29:07.107Z,100.00
2022-09-06T07:34:26.769Z,100.00
2022-09-06T07:36:55.343Z,100.00
2022-09-06T07:39:23.593Z,100.00
2022-09-06T07:41:52.198Z,100.00
2022-09-06T07:44:20.143Z,100.00
2022-09-06T07:46:49.360Z,100.00
2022-09-06T07:49:17.280Z,100.00
2022-09-06T07:51:45.081Z,100.00
2022-09-06T07:54:29.824Z,100.00
2022-09-06T07:56:58.556Z,100.00
2022-09-06T07:59:27.551Z,100.00
2022-09-06T08:01:56.961Z,100.00
2022-09-06T08:04:25.081Z,100.00
2022-09-06T08:09:41.533Z,100.00
2022-09-06T08:12:09.702Z,100.00
2022-09-06T08:14:37.566Z,100.00
2022-09-06T08:17:06.875Z,100.00
2022-09-06T08:19:35.503Z,100.00
2022-09-06T08:22:03.535Z,100.00
2022-09-06T08:24:31.753Z,100.00
2022-09-06T08:27:01.511Z,99.75
2022-09-06T08:29:29.496Z,98.16
2022-09-06T08:31:57.482Z,96.76
2022-09-06T08:34:26.832Z,96.73
2022-09-06T08:36:54.691Z,95.55
2022-09-06T08:39:22.581Z,94.62
2022-09-06T08:41:54.245Z,95.06
2022-09-06T08:47:14.549Z,97.20
2022-09-06T08:49:46.248Z,93.87
2022-09-06T08:52:32.821Z,97.99
2022-09-06T08:55:17.183Z,95.28
2022-09-06T08:58:04.836Z,95.55
2022-09-06T09:00:34.289Z,97.66
2022-09-06T09:03:11.098Z,93.61
2022-09-06T09:05:47.940Z,92.15
2022-09-06T09:08:22.628Z,92.36
2022-09-06T09:10:53.429Z,95.35
2022-09-06T09:13:28.517Z,97.11
2022-09-06T09:15:56.429Z,95.33
2022-09-06T09:18:28.210Z,91.39
2022-09-06T09:20:59.333Z,91.54
2022-09-06T09:23:27.376Z,88.90
2022-09-06T09:26:00.059Z,89.82
2022-09-06T09:28:29.062Z,88.51
2022-09-06T09:30:58.187Z,85.87
2022-09-06T09:33:30.836Z,86.75
2022-09-06T09:36:03.219Z,86.81
2022-09-06T09:38:33.874Z,88.46
2022-09-06T09:41:03.785Z,81.72
2022-09-06T09:43:32.605Z,81.96
2022-09-06T09:46:17.297Z,80.94
2022-09-06T09:49:00.107Z,82.22
2022-09-06T09:51:30.577Z,81.38
2022-09-06T09:54:00.563Z,83.44
2022-09-06T09:56:34.314Z,82.19
2022-09-06T09:59:03.870Z,82.30
2022-09-06T10:01:34.120Z,79.93
2022-09-06T10:07:10.183Z,80.52
2022-09-06T10:09:40.362Z,78.96
2022-09-06T10:12:08.280Z,77.83
2022-09-06T10:14:42.533Z,76.38
2022-09-06T10:17:20.295Z,77.33
2022-09-06T10:19:48.901Z,78.19
2022-09-06T10:22:33.808Z,75.26
2022-09-06T10:25:18.607Z,73.44
2022-09-06T10:28:11.888Z,73.04
2022-09-06T10:30:47.011Z,71.44
2022-09-06T10:33:28.198Z,72.70
2022-09-06T10:35:59.131Z,70.27
2022-09-06T10:38:42.211Z,71.58
2022-09-06T10:41:29.539Z,72.71
2022-09-06T10:44:07.340Z,74.47
2022-09-06T10:46:37.196Z,72.58
2022-09-06T10:49:05.763Z,72.64
2022-09-06T10:51:38.619Z,74.21
2022-09-06T10:54:11.063Z,72.88
2022-09-06T10:56:44.258Z,69.28
2022-09-06T11:02:13.970Z,71.39
2022-09-06T11:07:34.589Z,70.71
2022-09-06T11:10:10.025Z,70.96
2022-09-06T11:12:43.315Z,69.17
2022-09-06T11:15:14.493Z,68.49
2022-09-06T11:17:48.097Z,69.24
2022-09-06T11:20:23.475Z,69.41
2022-09-06T11:23:12.834Z,69.23
2022-09-06T11:26:00.097Z,69.33
2022-09-06T11:28:34.768Z,69.98
2022-09-06T11:31:04.258Z,67.42
2022-09-06T11:33:35.514Z,70.40
2022-09-06T11:36:29.995Z,71.88
2022-09-06T11:39:00.566Z,69.02
2022-09-06T11:41:32.560Z,69.33
2022-09-06T11:44:01.186Z,67.57
2022-09-06T11:47:02.771Z,66.09
2022-09-06T11:49:33.658Z,67.43
2022-09-06T11:52:01.875Z,68.59
2022-09-06T11:54:39.439Z,69.25
2022-09-06T11:57:16.111Z,66.51
2022-09-06T11:59:53.610Z,67.93
2022-09-06T12:02:35.355Z,67.45
2022-09-06T12:05:16.996Z,68.71
2022-09-06T12:08:15.111Z,68.85
2022-09-06T12:11:01.743Z,70.61
2022-09-06T12:13:41.672Z,69.91
2022-09-06T12:16:10.637Z,69.46
2022-09-06T12:19:01.839Z,71.21
2022-09-06T12:21:47.477Z,69.31
2022-09-06T12:24:53.820Z,69.06
2022-09-06T12:27:23.033Z,70.28
2022-09-06T12:29:59.330Z,69.13
2022-09-06T12:32:34.804Z,67.78
2022-09-06T12:37:57.243Z,66.27
2022-09-06T12:40:27.569Z,67.79
2022-09-06T12:42:55.678Z,65.98
2022-09-06T12:45:27.507Z,66.83
2022-09-06T12:48:05.975Z,67.03
2022-09-06T12:50:33.804Z,67.50
2022-09-06T12:53:03.902Z,65.52
2022-09-06T12:55:33.578Z,68.18
2022-09-06T12:58:03.597Z,69.00
2022-09-06T13:00:37.379Z,65.62
2022-09-06T13:03:12.375Z,66.58
2022-09-06T13:05:41.640Z,69.35
2022-09-06T13:08:15.149Z,68.28
2022-09-06T13:10:46.262Z,68.63
2022-09-06T13:13:20.665Z,66.76
2022-09-06T13:15:50.377Z,65.66
2022-09-06T13:18:23.957Z,65.25
2022-09-06T13:21:00.424Z,65.19
2022-09-06T13:23:28.996Z,66.48
2022-09-06T13:25:57.679Z,67.92
2022-09-06T13:28:27.843Z,68.40
2022-09-06T13:31:14.334Z,65.05
2022-09-06T13:33:42.921Z,63.89
2022-09-06T13:36:24.073Z,66.29
2022-09-06T13:38:51.963Z,64.02
2022-09-06T13:41:40.979Z,65.43
2022-09-06T13:44:19.762Z,66.39
2022-09-06T13:46:55.160Z,66.99
2022-09-06T13:49:24.490Z,63.43
2022-09-06T13:51:53.622Z,61.44
2022-09-06T13:54:22.684Z,60.65
2022-09-06T13:56:51.023Z,61.32
2022-09-06T13:59:19.118Z,60.44
2022-09-06T14:01:51.051Z,58.66
2022-09-06T14:04:21.881Z,59.17
2022-09-06T14:06:50.205Z,58.30
2022-09-06T14:09:18.029Z,57.09
2022-09-06T14:12:33.497Z,56.15
2022-09-06T14:15:01.410Z,57.14
2022-09-06T14:17:30.694Z,57.65
2022-09-06T14:19:58.592Z,57.55
2022-09-06T14:22:36.681Z,59.39
2022-09-06T14:25:06.985Z,60.05
2022-09-06T14:27:35.315Z,62.20
2022-09-06T14:30:03.445Z,60.33
2022-09-06T14:32:31.303Z,59.36
2022-09-06T14:35:00.312Z,59.75
2022-09-06T14:37:28.110Z,60.43
2022-09-06T14:40:28.320Z,60.49
2022-09-06T14:42:58.113Z,54.24
2022-09-06T14:45:26.063Z,57.56
2022-09-06T14:47:54.074Z,58.08
2022-09-06T14:50:22.154Z,58.86
2022-09-06T14:52:50.252Z,59.10
2022-09-06T14:55:18.390Z,59.37
2022-09-06T14:57:47.924Z,59.13
2022-09-06T15:00:16.439Z,57.81
2022-09-06T15:02:44.616Z,57.48
2022-09-06T15:05:13.264Z,56.25
2022-09-06T15:07:42.249Z,55.05
2022-09-06T15:10:10.966Z,56.19
2022-09-06T15:12:39.209Z,56.54
2022-09-06T15:15:09.445Z,56.46
2022-09-06T15:17:37.657Z,56.54
2022-09-06T15:20:06.695Z,57.20
2022-09-06T15:22:35.838Z,58.97
2022-09-06T15:25:03.900Z,60.65
2022-09-06T15:27:33.223Z,62.06
2022-09-06T15:30:01.207Z,61.69
2022-09-06T15:32:30.665Z,63.41
2022-09-06T15:35:04.664Z,63.84
2022-09-06T15:37:32.852Z,63.80
2022-09-06T15:40:01.089Z,65.67
2022-09-06T15:42:29.395Z,65.95
2022-09-06T15:44:57.394Z,66.99
2022-09-06T15:47:25.298Z,64.75
2022-09-06T15:49:54.610Z,64.69
2022-09-06T15:52:22.567Z,63.73
2022-09-06T15:55:10.367Z,63.65
2022-09-06T15:57:38.328Z,64.24
2022-09-06T16:00:07.067Z,65.56
2022-09-06T16:02:35.032Z,64.57
2022-09-06T16:05:05.674Z,66.63
2022-09-06T16:07:33.677Z,66.19
2022-09-06T16:10:01.685Z,66.16
2022-09-06T16:12:29.641Z,66.33
2022-09-06T16:14:57.594Z,67.96
2022-09-06T16:17:27.502Z,69.68
2022-09-06T16:19:55.511Z,70.73
2022-09-06T16:22:24.786Z,72.18
2022-09-06T16:24:52.862Z,73.53
2022-09-06T16:27:20.839Z,73.69
2022-09-06T16:29:48.734Z,74.58
2022-09-06T16:32:17.319Z,75.44
2022-09-06T16:35:11.182Z,77.51
2022-09-06T16:37:41.747Z,77.77
2022-09-06T16:40:11.221Z,78.01
2022-09-06T16:42:39.171Z,78.23
2022-09-06T16:45:08.859Z,78.85
2022-09-06T16:47:36.818Z,80.88
2022-09-06T16:50:05.164Z,81.71
2022-09-06T16:52:33.830Z,81.71
2022-09-06T16:55:03.207Z,82.26
2022-09-06T16:57:31.092Z,81.75
2022-09-06T16:59:58.995Z,82.94
2022-09-06T17:02:27.072Z,84.48
2022-09-06T17:04:54.964Z,84.98
2022-09-06T17:07:23.027Z,86.02
2022-09-06T17:09:51.062Z,85.96
2022-09-06T17:12:21.023Z,86.96
2022-09-06T17:14:49.103Z,88.37
2022-09-06T17:17:17.857Z,88.96
2022-09-06T17:19:45.827Z,90.13
2022-09-06T17:22:14.900Z,91.08
2022-09-06T17:24:43.080Z,92.31
2022-09-06T17:27:11.091Z,92.15
2022-09-06T17:29:40.803Z,93.28
2022-09-06T17:32:10.427Z,94.34
2022-09-06T17:34:39.044Z,94.78
2022-09-06T17:37:07.735Z,95.73
2022-09-06T17:39:35.783Z,97.04
2022-09-06T17:42:04.375Z,98.45
2022-09-06T17:44:32.310Z,98.78
2022-09-06T17:47:12.501Z,98.68
2022-09-06T17:49:41.179Z,98.67
2022-09-06T17:52:09.624Z,99.44
2022-09-06T17:54:37.549Z,99.81
2022-09-06T17:57:05.738Z,100.00
2022-09-06T17:59:35.792Z,100.00
2022-09-06T18:02:05.911Z,100.00
2022-09-06T18:04:34.250Z,99.83
2022-09-06T18:07:02.181Z,100.00
2022-09-06T18:09:30.239Z,100.00
2022-09-06T18:11:58.384Z,100.00
2022-09-06T18:14:28.554Z,100.00
2022-09-06T18:16:56.695Z,100.00
2022-09-06T18:19:27.432Z,100.00
2022-09-06T18:21:57.180Z,100.00
2022-09-06T18:24:25.374Z,100.00
2022-09-06T18:26:53.262Z,100.00
2022-09-06T18:29:21.686Z,100.00
2022-09-06T18:31:51.373Z,100.00
2022-09-06T18:34:19.352Z,100.00
2022-09-06T18:36:48.670Z,100.00
2022-09-06T18:39:18.948Z,100.00
2022-09-06T18:42:02.144Z,100.00
2022-09-06T18:44:32.390Z,100.00
2022-09-06T18:47:02.035Z,100.00
2022-09-06T18:49:30.806Z,100.00
2022-09-06T18:52:00.214Z,100.00
2022-09-06T18:54:28.359Z,100.00
2022-09-06T18:56:56.835Z,100.00
2022-09-06T18:59:25.228Z,100.00
2022-09-06T19:01:53.526Z,100.00
2022-09-06T19:04:21.536Z,100.00
2022-09-06T19:06:49.569Z,100.00
2022-09-06T19:09:19.234Z,100.00
2022-09-06T19:11:51.283Z,100.00
2022-09-06T19:14:19.380Z,100.00
2022-09-06T19:16:48.717Z,100.00
2022-09-06T19:19:16.955Z,100.00
2022-09-06T19:21:45.075Z,100.00
2022-09-06T19:24:15.678Z,100.00
2022-09-06T19:26:45.726Z,100.00
2022-09-06T19:29:15.649Z,100.00
2022-09-06T19:31:43.847Z,100.00
2022-09-06T19:34:12.281Z,100.00
2022-09-06T19:36:40.345Z,100.00
2022-09-06T19:39:10.627Z,100.00
2022-09-06T19:41:42.953Z,100.00
2022-09-06T19:44:15.251Z,100.00
2022-09-06T19:46:46.171Z,100.00
2022-09-06T19:49:15.318Z,100.00
2022-09-06T19:51:45.240Z,100.00
2022-09-06T19:54:15.334Z,100.00
2022-09-06T19:56:44.182Z,100.00
2022-09-06T19:59:14.771Z,100.00
2022-09-06T20:01:44.540Z,100.00
2022-09-06T20:04:13.910Z,100.00
2022-09-06T20:06:42.217Z,100.00
2022-09-06T20:09:11.355Z,100.00
2022-09-06T20:11:40.912Z,100.00
2022-09-06T20:14:09.413Z,100.00
2022-09-06T20:16:41.864Z,100.00
2022-09-06T20:19:12.008Z,100.00
2022-09-06T20:21:40.176Z,100.00
2022-09-06T20:24:08.462Z,100.00
2022-09-06T20:26:36.703Z,100.00
2022-09-06T20:29:06.713Z,100.00
2022-09-06T20:31:36.301Z,100.00
2022-09-06T20:34:06.802Z,100.00
2022-09-06T20:36:35.025Z,100.00
2022-09-06T20:39:03.302Z,100.00
2022-09-06T20:41:32.028Z,100.00
2022-09-06T20:44:01.062Z,100.00
2022-09-06T20:46:31.112Z,100.00
2022-09-06T20:49:03.672Z,100.00
2022-09-06T20:51:34.481Z,100.00
2022-09-06T20:54:03.715Z,100.00
2022-09-06T20:56:34.265Z,100.00
2022-09-06T20:59:04.459Z,100.00
2022-09-06T21:01:35.745Z,100.00
2022-09-06T21:04:06.477Z,100.00
2022-09-06T21:06:37.870Z,100.00
2022-09-06T21:09:07.615Z,100.00
2022-09-06T21:11:35.602Z,100.00
2022-09-06T21:14:04.049Z,100.00
2022-09-06T21:16:32.711Z,100.00
2022-09-06T21:19:02.861Z,100.00
2022-09-06T21:21:32.238Z,100.00
2022-09-06T21:24:03.540Z,100.00
2022-09-06T21:26:31.727Z,100.00
2022-09-06T21:29:00.325Z,100.00
2022-09-06T21:31:31.102Z,100.00
2022-09-06T21:34:00.562Z,100.00
2022-09-06T21:36:30.405Z,100.00
2022-09-06T21:39:00.129Z,100.00
2022-09-06T21:41:30.973Z,100.00
2022-09-06T21:44:00.221Z,100.00
2022-09-06T21:46:33.119Z,100.00
2022-09-06T21:49:03.534Z,100.00
2022-09-06T21:51:32.657Z,100.00
2022-09-06T21:54:03.536Z,100.00
2022-09-06T21:56:34.299Z,100.00
2022-09-06T21:59:02.657Z,100.00
2022-09-06T22:01:32.615Z,100.00
2022-09-06T22:04:01.191Z,100.00
2022-09-06T22:06:31.294Z,100.00
2022-09-06T22:09:01.120Z,100.00
2022-09-06T22:11:30.939Z,100.00
2022-09-06T22:14:01.705Z,100.00
2022-09-06T22:16:31.152Z,100.00
2022-09-06T22:18:59.190Z,100.00
2022-09-06T22:21:27.196Z,100.00
2022-09-06T22:23:57.897Z,100.00
2022-09-06T22:26:27.723Z,100.00
2022-09-06T22:28:57.075Z,100.00
2022-09-06T22:31:27.839Z,100.00
2022-09-06T22:33:56.424Z,100.00
2022-09-06T22:36:25.556Z,100.00
2022-09-06T22:38:57.451Z,100.00
2022-09-06T22:41:26.452Z,100.00
2022-09-06T22:43:54.511Z,100.00
2022-09-06T22:46:22.718Z,100.00
2022-09-06T22:48:52.351Z,100.00
2022-09-06T22:51:20.386Z,100.00
2022-09-06T22:53:48.385Z,100.00
2022-09-06T22:56:16.356Z,100.00
2022-09-06T22:58:44.317Z,100.00
2022-09-06T23:01:14.481Z,100.00
2022-09-06T23:03:42.901Z,100.00
2022-09-06T23:06:12.646Z,100.00
2022-09-06T23:08:41.739Z,100.00
2022-09-06T23:11:12.262Z,100.00
2022-09-06T23:13:43.530Z,100.00
2022-09-06T23:16:13.526Z,100.00
2022-09-06T23:18:41.642Z,100.00
2022-09-06T23:21:12.851Z,100.00
2022-09-06T23:23:42.672Z,100.00
2022-09-06T23:26:12.828Z,100.00
2022-09-06T23:28:41.037Z,100.00
2022-09-06T23:31:11.364Z,100.00
2022-09-06T23:33:39.480Z,100.00
2022-09-06T23:36:10.018Z,100.00
2022-09-06T23:38:41.029Z,100.00
2022-09-06T23:41:10.346Z,100.00
2022-09-06T23:43:39.083Z,100.00
2022-09-06T23:46:07.165Z,100.00
2022-09-06T23:48:36.045Z,100.00
2022-09-06T23:51:04.282Z,100.00
2022-09-06T23:53:32.661Z,100.00
2022-09-06T23:56:02.449Z,100.00
2022-09-06T23:58:30.503Z,100.00
